createdAt,value
2023-02-17T00:00:40.079Z,72.35
2023-02-17T00:03:09.533Z,72.34
2023-02-17T00:05:41.633Z,72.63
2023-02-17T00:08:11.234Z,72.24
2023-02-17T00:10:43.310Z,72.01
2023-02-17T00:13:12.748Z,72.16
2023-02-17T00:15:42.309Z,72.53
2023-02-17T00:18:11.844Z,72.86
2023-02-17T00:20:41.402Z,73.68
2023-02-17T00:23:11.033Z,73.64
2023-02-17T00:25:45.899Z,73.88
2023-02-17T00:28:15.345Z,73.75
2023-02-17T00:30:44.892Z,73.41
2023-02-17T00:33:14.397Z,73.17
2023-02-17T00:35:44.287Z,73.07
2023-02-17T00:38:13.791Z,72.91
2023-02-17T00:40:46.089Z,72.50
2023-02-17T00:43:15.800Z,72.68
2023-02-17T00:45:45.303Z,72.43
2023-02-17T00:48:14.836Z,72.15
2023-02-17T00:50:44.385Z,72.23
2023-02-17T00:53:13.848Z,72.73
2023-02-17T00:55:45.931Z,72.74
2023-02-17T00:58:15.423Z,72.67
2023-02-17T01:00:45.001Z,72.28
2023-02-17T01:03:14.464Z,72.62
2023-02-17T01:05:44.502Z,73.56
2023-02-17T01:08:14.152Z,73.26
2023-02-17T01:10:47.347Z,73.11
2023-02-17T01:13:17.283Z,72.97
2023-02-17T01:15:49.000Z,72.98
2023-02-17T01:18:18.552Z,72.99
2023-02-17T01:20:48.094Z,72.75
2023-02-17T01:23:17.670Z,72.98
2023-02-17T01:25:50.792Z,72.95
2023-02-17T01:28:22.377Z,72.92
2023-02-17T01:30:52.143Z,73.72
2023-02-17T01:33:21.581Z,74.51
2023-02-17T01:35:51.132Z,73.71
2023-02-17T01:38:20.653Z,73.45
2023-02-17T01:40:52.923Z,73.41
2023-02-17T01:43:28.754Z,73.13
2023-02-17T01:45:59.117Z,72.69
2023-02-17T01:48:29.652Z,73.14
2023-02-17T01:51:02.559Z,73.23
2023-02-17T01:53:34.421Z,72.99
2023-02-17T01:56:06.864Z,73.19
2023-02-17T01:58:36.614Z,72.88
2023-02-17T02:01:06.516Z,73.11
2023-02-17T02:03:36.506Z,73.17
2023-02-17T02:06:07.916Z,72.74
2023-02-17T02:08:41.498Z,73.22
2023-02-17T02:11:13.559Z,73.15
2023-02-17T02:13:43.002Z,73.18
2023-02-17T02:16:15.758Z,73.18
2023-02-17T02:18:50.285Z,72.93
2023-02-17T02:21:52.053Z,73.03
2023-02-17T02:24:28.009Z,72.90
2023-02-17T02:27:32.306Z,73.41
2023-02-17T02:30:31.799Z,73.41
2023-02-17T02:33:06.863Z,73.72
2023-02-17T02:35:39.823Z,73.60
2023-02-17T02:38:12.375Z,73.83
2023-02-17T02:40:43.874Z,73.69
2023-02-17T02:43:15.170Z,73.89
2023-02-17T02:45:44.783Z,73.85
2023-02-17T02:48:16.864Z,74.30
2023-02-17T02:51:03.862Z,74.36
2023-02-17T02:53:58.783Z,74.66
2023-02-17T02:56:38.833Z,74.95
2023-02-17T02:59:13.096Z,74.98
2023-02-17T03:01:46.754Z,75.02
2023-02-17T03:04:21.625Z,74.96
2023-02-17T03:06:52.035Z,74.82
2023-02-17T03:09:23.877Z,75.47
2023-02-17T03:11:53.389Z,75.08
2023-02-17T03:14:23.459Z,76.27
2023-02-17T03:16:55.748Z,76.02
2023-02-17T03:19:27.948Z,75.48
2023-02-17T03:21:58.981Z,75.25
2023-02-17T03:24:28.223Z,75.01
2023-02-17T03:26:57.717Z,74.89
2023-02-17T03:29:27.294Z,75.11
2023-02-17T03:31:56.835Z,74.99
2023-02-17T03:34:28.963Z,75.12
2023-02-17T03:37:01.131Z,75.05
2023-02-17T03:39:31.639Z,74.78
2023-02-17T03:42:02.248Z,75.28
2023-02-17T03:44:31.722Z,75.13
2023-02-17T03:47:01.194Z,75.56
2023-02-17T03:49:33.246Z,75.42
2023-02-17T03:52:02.725Z,75.52
2023-02-17T03:54:34.170Z,76.18
2023-02-17T03:57:03.867Z,77.93
2023-02-17T03:59:33.366Z,78.71
2023-02-17T04:02:02.804Z,78.73
2023-02-17T04:04:36.313Z,78.77
2023-02-17T04:07:05.832Z,78.97
2023-02-17T04:09:35.320Z,78.77
2023-02-17T04:12:04.788Z,78.32
2023-02-17T04:14:34.266Z,78.05
2023-02-17T04:17:03.687Z,78.14
2023-02-17T04:19:35.722Z,78.49
2023-02-17T04:22:08.900Z,78.51
2023-02-17T04:24:38.722Z,77.48
2023-02-17T04:27:09.018Z,77.65
2023-02-17T04:29:38.485Z,77.24
2023-02-17T04:32:07.972Z,76.61
2023-02-17T04:34:40.181Z,76.89
2023-02-17T04:37:09.634Z,77.08
2023-02-17T04:39:39.145Z,77.04
2023-02-17T04:42:08.762Z,78.00
2023-02-17T04:44:38.211Z,78.32
2023-02-17T04:47:07.754Z,78.61
2023-02-17T04:49:39.816Z,78.28
2023-02-17T04:52:09.249Z,79.83
2023-02-17T04:54:39.102Z,79.98
2023-02-17T04:57:08.565Z,79.99
2023-02-17T04:59:38.170Z,79.96
2023-02-17T05:02:07.653Z,80.03
2023-02-17T05:04:39.695Z,80.29
2023-02-17T05:07:09.248Z,80.37
2023-02-17T05:09:38.745Z,80.37
2023-02-17T05:12:08.361Z,79.81
2023-02-17T05:14:38.002Z,78.77
2023-02-17T05:17:07.431Z,78.32
2023-02-17T05:19:37.075Z,78.58
2023-02-17T05:22:09.096Z,78.27
2023-02-17T05:24:38.999Z,78.14
2023-02-17T05:27:08.515Z,78.15
2023-02-17T05:29:38.029Z,77.80
2023-02-17T05:32:07.523Z,77.59
2023-02-17T05:34:37.051Z,78.20
2023-02-17T05:37:09.102Z,78.60
2023-02-17T05:39:38.577Z,78.80
2023-02-17T05:42:08.184Z,79.24
2023-02-17T05:44:37.709Z,80.65
2023-02-17T05:47:07.323Z,79.87
2023-02-17T05:49:36.775Z,79.99
2023-02-17T05:52:08.829Z,79.90
2023-02-17T05:54:38.241Z,80.05
2023-02-17T05:57:07.701Z,80.71
2023-02-17T05:59:37.158Z,80.31
2023-02-17T06:02:06.716Z,80.23
2023-02-17T06:04:36.280Z,80.14
2023-02-17T06:07:05.780Z,80.10
2023-02-17T06:09:37.826Z,80.22
2023-02-17T06:12:08.032Z,79.42
2023-02-17T06:14:37.495Z,79.22
2023-02-17T06:17:06.960Z,79.01
2023-02-17T06:19:36.436Z,79.04
2023-02-17T06:22:05.902Z,78.71
2023-02-17T06:24:37.944Z,78.91
2023-02-17T06:27:07.403Z,78.92
2023-02-17T06:29:36.964Z,78.88
2023-02-17T06:32:06.587Z,78.47
2023-02-17T06:34:36.057Z,78.45
2023-02-17T06:37:05.520Z,78.50
2023-02-17T06:39:37.789Z,78.41
2023-02-17T06:42:07.337Z,78.39
2023-02-17T06:44:36.803Z,78.49
2023-02-17T06:47:06.354Z,78.30
2023-02-17T06:49:35.839Z,78.37
2023-02-17T06:52:05.277Z,77.89
2023-02-17T06:54:34.738Z,78.28
2023-02-17T06:57:06.760Z,78.73
2023-02-17T06:59:36.233Z,78.91
2023-02-17T07:02:05.822Z,79.18
2023-02-17T07:04:35.473Z,78.87
2023-02-17T07:07:04.894Z,79.01
2023-02-17T07:09:34.402Z,79.02
2023-02-17T07:12:06.821Z,79.05
2023-02-17T07:14:36.775Z,78.42
2023-02-17T07:17:06.253Z,78.01
2023-02-17T07:19:35.751Z,78.03
2023-02-17T07:22:05.260Z,77.75
2023-02-17T07:24:35.067Z,77.55
2023-02-17T07:27:10.616Z,78.16
2023-02-17T07:29:40.381Z,77.78
2023-02-17T07:32:09.911Z,77.88
2023-02-17T07:34:40.245Z,77.82
2023-02-17T07:37:10.414Z,77.46
2023-02-17T07:39:39.895Z,76.96
2023-02-17T07:42:12.751Z,76.43
2023-02-17T07:44:42.245Z,75.41
2023-02-17T07:47:11.682Z,75.36
2023-02-17T07:49:41.156Z,74.80
2023-02-17T07:52:10.657Z,74.61
2023-02-17T07:54:40.203Z,74.69
2023-02-17T07:57:12.238Z,74.57
2023-02-17T07:59:41.732Z,74.14
2023-02-17T08:02:12.903Z,74.35
2023-02-17T08:04:42.414Z,74.00
2023-02-17T08:07:11.865Z,73.63
2023-02-17T08:10:05.683Z,73.21
2023-02-17T08:13:05.261Z,72.34
2023-02-17T08:15:35.918Z,72.73
2023-02-17T08:18:06.496Z,72.43
2023-02-17T08:20:36.004Z,72.13
2023-02-17T08:23:06.467Z,71.86
2023-02-17T08:25:36.419Z,71.69
2023-02-17T08:28:09.252Z,71.60
2023-02-17T08:30:39.236Z,71.94
2023-02-17T08:33:08.867Z,72.06
2023-02-17T08:35:38.369Z,71.89
2023-02-17T08:38:07.850Z,71.61
2023-02-17T08:40:37.368Z,71.62
2023-02-17T08:43:09.891Z,71.61
2023-02-17T08:45:39.375Z,72.51
2023-02-17T08:48:09.030Z,73.96
2023-02-17T08:50:38.526Z,75.05
2023-02-17T08:53:07.974Z,76.47
2023-02-17T08:55:48.580Z,76.97
2023-02-17T08:58:20.966Z,78.14
2023-02-17T09:00:50.475Z,77.96
2023-02-17T09:03:19.938Z,77.76
2023-02-17T09:05:50.546Z,77.44
2023-02-17T09:08:20.667Z,77.49
2023-02-17T09:10:50.368Z,77.69
2023-02-17T09:13:22.616Z,76.78
2023-02-17T09:15:54.068Z,76.36
2023-02-17T09:18:23.857Z,77.06
2023-02-17T09:20:53.410Z,76.67
2023-02-17T09:23:23.146Z,76.43
2023-02-17T09:25:52.615Z,76.00
2023-02-17T09:28:24.715Z,75.67
2023-02-17T09:30:54.399Z,75.53
2023-02-17T09:33:25.751Z,74.92
2023-02-17T09:35:56.337Z,74.64
2023-02-17T09:38:25.941Z,73.87
2023-02-17T09:40:55.427Z,73.93
2023-02-17T09:43:29.490Z,73.28
2023-02-17T09:46:00.965Z,73.12
2023-02-17T09:48:31.544Z,72.16
2023-02-17T09:51:02.697Z,71.75
2023-02-17T09:53:33.510Z,69.89
2023-02-17T09:56:05.099Z,70.50
2023-02-17T09:58:39.328Z,69.86
2023-02-17T10:01:12.172Z,68.80
2023-02-17T10:03:42.973Z,67.59
2023-02-17T10:06:15.991Z,68.68
2023-02-17T10:08:49.652Z,68.02
2023-02-17T10:11:23.236Z,68.38
2023-02-17T10:13:55.569Z,68.56
2023-02-17T10:16:26.935Z,68.05
2023-02-17T10:18:59.484Z,68.63
2023-02-17T10:21:30.796Z,68.46
2023-02-17T10:24:00.424Z,67.88
2023-02-17T10:26:45.308Z,67.38
2023-02-17T10:29:23.915Z,67.39
2023-02-17T10:31:57.658Z,67.14
2023-02-17T10:34:38.280Z,67.38
2023-02-17T10:37:09.157Z,67.52
2023-02-17T10:39:46.802Z,67.11
2023-02-17T10:42:19.828Z,66.84
2023-02-17T10:44:52.117Z,65.53
2023-02-17T10:47:21.661Z,65.76
2023-02-17T10:49:53.105Z,65.08
2023-02-17T10:52:24.951Z,65.64
2023-02-17T10:54:57.672Z,66.87
2023-02-17T10:57:27.612Z,66.72
2023-02-17T10:59:59.746Z,66.72
2023-02-17T11:02:38.240Z,65.77
2023-02-17T11:05:08.851Z,65.67
2023-02-17T11:07:39.438Z,65.58
2023-02-17T11:10:25.661Z,65.65
2023-02-17T11:12:56.034Z,66.13
2023-02-17T11:15:29.986Z,65.56
2023-02-17T11:17:59.685Z,66.31
2023-02-17T11:20:32.373Z,65.14
2023-02-17T11:23:11.056Z,64.54
2023-02-17T11:25:40.624Z,64.30
2023-02-17T11:28:14.186Z,64.31
2023-02-17T11:30:54.656Z,62.29
2023-02-17T11:33:26.128Z,59.28
2023-02-17T11:35:56.024Z,57.64
2023-02-17T11:38:27.145Z,57.81
2023-02-17T11:40:57.611Z,58.39
2023-02-17T11:43:28.634Z,57.97
2023-02-17T11:46:05.761Z,58.92
2023-02-17T11:48:55.151Z,59.09
2023-02-17T11:51:26.162Z,60.02
2023-02-17T11:54:01.200Z,60.78
2023-02-17T11:56:33.504Z,61.35
2023-02-17T11:59:11.268Z,61.80
2023-02-17T12:01:58.999Z,62.39
2023-02-17T12:04:29.373Z,62.80
2023-02-17T12:07:19.169Z,62.98
2023-02-17T12:09:59.088Z,62.58
2023-02-17T12:12:32.828Z,62.97
2023-02-17T12:15:06.613Z,63.06
2023-02-17T12:17:45.876Z,63.66
2023-02-17T12:20:29.018Z,63.98
2023-02-17T12:23:03.804Z,63.52
2023-02-17T12:25:34.281Z,63.46
2023-02-17T12:28:12.028Z,63.58
2023-02-17T12:30:50.094Z,63.88
2023-02-17T12:33:33.882Z,63.58
2023-02-17T12:36:05.469Z,63.57
2023-02-17T12:38:36.260Z,63.14
2023-02-17T12:41:08.396Z,62.81
2023-02-17T12:43:40.783Z,63.08
2023-02-17T12:46:16.554Z,63.07
2023-02-17T12:48:50.153Z,62.55
2023-02-17T12:51:21.876Z,63.01
2023-02-17T12:53:53.223Z,63.33
2023-02-17T12:56:44.202Z,63.64
2023-02-17T12:59:15.751Z,64.13
2023-02-17T13:01:57.832Z,63.80
2023-02-17T13:04:30.139Z,64.35
2023-02-17T13:07:06.107Z,64.21
2023-02-17T13:09:37.238Z,64.54
2023-02-17T13:12:17.938Z,64.94
2023-02-17T13:14:47.977Z,64.42
2023-02-17T13:17:28.770Z,64.21
2023-02-17T13:20:27.357Z,63.51
2023-02-17T13:23:10.157Z,62.97
2023-02-17T13:25:39.770Z,61.90
2023-02-17T13:28:36.243Z,61.36
2023-02-17T13:31:19.946Z,62.11
2023-02-17T13:33:51.890Z,60.83
2023-02-17T13:36:39.574Z,59.98
2023-02-17T13:39:29.502Z,61.34
2023-02-17T13:42:00.521Z,61.82
2023-02-17T13:44:32.922Z,62.41
2023-02-17T13:47:09.204Z,62.86
2023-02-17T13:49:38.667Z,62.74
2023-02-17T13:52:19.719Z,65.04
2023-02-17T13:54:56.231Z,65.34
2023-02-17T13:57:28.725Z,63.77
2023-02-17T14:00:11.849Z,63.58
2023-02-17T14:02:42.075Z,63.70
2023-02-17T14:05:18.373Z,63.52
2023-02-17T14:07:53.331Z,62.91
2023-02-17T14:10:25.025Z,62.59
2023-02-17T14:12:54.638Z,62.65
2023-02-17T14:15:25.362Z,62.89
2023-02-17T14:17:54.955Z,63.21
2023-02-17T14:20:32.379Z,62.94
2023-02-17T14:23:06.569Z,62.88
2023-02-17T14:25:37.519Z,62.30
2023-02-17T14:28:07.350Z,62.35
2023-02-17T14:30:38.733Z,62.07
2023-02-17T14:33:09.017Z,62.04
2023-02-17T14:35:39.554Z,61.71
2023-02-17T14:38:23.014Z,62.14
2023-02-17T14:40:57.549Z,62.48
2023-02-17T14:43:27.389Z,63.29
2023-02-17T14:45:56.876Z,63.38
2023-02-17T14:48:27.926Z,63.34
2023-02-17T14:50:58.846Z,63.29
2023-02-17T14:53:32.757Z,63.01
2023-02-17T14:56:03.269Z,62.96
2023-02-17T14:58:32.876Z,63.10
2023-02-17T15:01:02.402Z,63.14
2023-02-17T15:03:34.808Z,63.44
2023-02-17T15:06:12.677Z,63.96
2023-02-17T15:08:45.425Z,63.85
2023-02-17T15:11:19.650Z,63.36
2023-02-17T15:13:49.298Z,63.23
2023-02-17T15:16:19.148Z,63.81
2023-02-17T15:18:54.017Z,63.70
2023-02-17T15:21:28.073Z,63.56
2023-02-17T15:24:02.586Z,63.20
2023-02-17T15:26:32.927Z,63.91
2023-02-17T15:29:02.432Z,63.73
2023-02-17T15:31:32.680Z,63.52
2023-02-17T15:34:02.809Z,64.32
2023-02-17T15:36:32.889Z,63.89
2023-02-17T15:39:05.076Z,64.04
2023-02-17T15:41:34.578Z,63.91
2023-02-17T15:44:05.813Z,63.68
2023-02-17T15:46:36.432Z,63.68
2023-02-17T15:49:05.964Z,63.77
2023-02-17T15:51:35.461Z,64.24
2023-02-17T15:54:07.685Z,64.41
2023-02-17T15:56:43.236Z,63.46
2023-02-17T15:59:15.257Z,64.45
2023-02-17T16:01:45.258Z,64.03
2023-02-17T16:04:14.924Z,64.23
2023-02-17T16:06:44.701Z,63.82
2023-02-17T16:09:16.907Z,64.01
2023-02-17T16:11:49.623Z,64.10
2023-02-17T16:14:26.046Z,64.36
2023-02-17T16:16:55.475Z,64.28
2023-02-17T16:19:24.994Z,64.34
2023-02-17T16:21:54.491Z,64.12
2023-02-17T16:24:26.567Z,63.89
2023-02-17T16:26:56.414Z,63.42
2023-02-17T16:29:25.908Z,63.46
2023-02-17T16:31:55.978Z,63.58
2023-02-17T16:34:26.279Z,63.06
2023-02-17T16:36:56.878Z,63.56
2023-02-17T16:39:28.936Z,63.26
2023-02-17T16:41:58.685Z,63.25
2023-02-17T16:44:28.141Z,63.55
2023-02-17T16:46:59.579Z,63.71
2023-02-17T16:49:32.642Z,63.38
2023-02-17T16:52:02.337Z,63.16
2023-02-17T16:54:35.691Z,62.62
2023-02-17T16:57:05.477Z,62.84
2023-02-17T16:59:34.950Z,63.05
2023-02-17T17:02:04.416Z,62.44
2023-02-17T17:04:33.940Z,62.87
2023-02-17T17:07:03.407Z,62.74
2023-02-17T17:09:35.444Z,61.60
2023-02-17T17:12:04.902Z,62.68
2023-02-17T17:14:34.391Z,62.31
2023-02-17T17:17:04.340Z,62.38
2023-02-17T17:19:33.793Z,61.67
2023-02-17T17:22:03.452Z,62.47
2023-02-17T17:24:35.476Z,62.17
2023-02-17T17:27:04.944Z,62.27
2023-02-17T17:29:34.402Z,61.68
2023-02-17T17:32:04.051Z,61.15
2023-02-17T17:34:33.513Z,61.93
2023-02-17T17:37:02.979Z,61.98
2023-02-17T17:39:35.026Z,61.69
2023-02-17T17:42:04.495Z,61.72
2023-02-17T17:44:33.982Z,61.98
2023-02-17T17:47:03.804Z,61.22
2023-02-17T17:49:33.602Z,61.73
2023-02-17T17:52:03.057Z,61.99
2023-02-17T17:54:36.195Z,61.69
2023-02-17T17:57:05.770Z,61.87
2023-02-17T17:59:35.219Z,61.96
2023-02-17T18:02:04.689Z,61.92
2023-02-17T18:04:34.163Z,61.34
2023-02-17T18:07:03.861Z,62.02
2023-02-17T18:09:38.915Z,61.39
2023-02-17T18:12:11.210Z,61.40
2023-02-17T18:14:41.869Z,61.30
2023-02-17T18:17:11.396Z,61.09
2023-02-17T18:19:40.923Z,60.54
2023-02-17T18:22:10.901Z,60.83
2023-02-17T18:24:42.932Z,60.90
2023-02-17T18:27:12.400Z,60.61
2023-02-17T18:29:41.847Z,60.88
2023-02-17T18:32:11.522Z,61.03
2023-02-17T18:34:41.046Z,61.32
2023-02-17T18:37:10.602Z,61.04
2023-02-17T18:39:40.048Z,61.22
2023-02-17T18:42:12.211Z,61.27
2023-02-17T18:44:41.693Z,60.76
2023-02-17T18:47:11.168Z,61.80
2023-02-17T18:49:40.635Z,61.49
2023-02-17T18:52:10.097Z,61.73
2023-02-17T18:54:44.224Z,62.01
2023-02-17T18:57:16.301Z,62.24
2023-02-17T18:59:46.045Z,62.20
2023-02-17T19:02:15.603Z,61.95
2023-02-17T19:04:45.042Z,62.25
2023-02-17T19:07:14.539Z,62.40
2023-02-17T19:09:44.916Z,62.21
2023-02-17T19:12:16.953Z,61.48
2023-02-17T19:14:46.480Z,62.15
2023-02-17T19:17:18.383Z,62.08
2023-02-17T19:19:48.054Z,62.50
2023-02-17T19:22:17.537Z,62.91
2023-02-17T19:24:47.099Z,62.29
2023-02-17T19:27:19.208Z,62.48
2023-02-17T19:29:48.865Z,63.11
2023-02-17T19:32:18.398Z,63.60
2023-02-17T19:34:47.884Z,63.54
2023-02-17T19:37:17.376Z,63.59
2023-02-17T19:39:46.854Z,64.11
2023-02-17T19:42:18.877Z,64.02
2023-02-17T19:44:48.452Z,64.02
2023-02-17T19:47:17.962Z,63.72
2023-02-17T19:49:47.414Z,64.37
2023-02-17T19:52:17.061Z,64.42
2023-02-17T19:54:46.870Z,64.47
2023-02-17T19:57:20.047Z,64.23
2023-02-17T19:59:49.479Z,64.07
2023-02-17T20:02:19.091Z,63.78
2023-02-17T20:04:48.612Z,63.93
2023-02-17T20:07:18.072Z,64.16
2023-02-17T20:09:47.594Z,64.18
2023-02-17T20:12:21.676Z,63.66
2023-02-17T20:14:51.177Z,64.29
2023-02-17T20:17:20.633Z,64.50
2023-02-17T20:19:50.113Z,64.96
2023-02-17T20:22:19.597Z,64.79
2023-02-17T20:24:49.060Z,65.15
2023-02-17T20:27:21.558Z,65.75
2023-02-17T20:29:51.171Z,65.41
2023-02-17T20:32:20.761Z,65.87
2023-02-17T20:34:52.594Z,65.29
2023-02-17T20:37:22.195Z,64.96
2023-02-17T20:39:51.679Z,64.43
2023-02-17T20:42:23.743Z,64.88
2023-02-17T20:44:54.518Z,64.98
2023-02-17T20:47:24.001Z,65.33
2023-02-17T20:49:53.486Z,64.43
2023-02-17T20:52:22.954Z,65.07
2023-02-17T20:54:52.470Z,65.54
2023-02-17T20:57:24.507Z,65.75
2023-02-17T20:59:53.985Z,66.00
2023-02-17T21:02:23.540Z,66.12
2023-02-17T21:04:53.391Z,66.13
2023-02-17T21:07:22.868Z,66.37
2023-02-17T21:09:52.342Z,66.83
2023-02-17T21:12:24.408Z,67.51
2023-02-17T21:14:53.919Z,67.47
2023-02-17T21:17:23.380Z,67.71
2023-02-17T21:19:52.830Z,67.29
2023-02-17T21:22:22.371Z,67.34
2023-02-17T21:24:52.051Z,67.18
2023-02-17T21:27:24.119Z,66.88
2023-02-17T21:29:53.576Z,67.04
2023-02-17T21:32:23.128Z,67.55
2023-02-17T21:34:52.630Z,67.54
2023-02-17T21:37:22.275Z,67.73
2023-02-17T21:39:51.781Z,67.48
2023-02-17T21:42:48.431Z,66.95
2023-02-17T21:45:15.620Z,66.93
2023-02-17T21:47:45.747Z,66.72
2023-02-17T21:50:15.429Z,66.54
2023-02-17T21:52:44.916Z,66.40
2023-02-17T21:55:14.380Z,65.95
2023-02-17T21:57:46.483Z,66.40
2023-02-17T22:00:17.817Z,66.60
2023-02-17T22:02:47.353Z,66.57
2023-02-17T22:05:17.170Z,66.66
2023-02-17T22:07:46.641Z,66.35
2023-02-17T22:10:16.657Z,66.10
2023-02-17T22:12:48.704Z,65.67
2023-02-17T22:15:18.815Z,65.83
2023-02-17T22:17:48.279Z,65.76
2023-02-17T22:20:19.305Z,65.70
2023-02-17T22:22:48.569Z,66.05
2023-02-17T22:25:18.123Z,66.01
2023-02-17T22:27:50.608Z,66.05
2023-02-17T22:30:20.488Z,66.58
2023-02-17T22:32:49.911Z,66.35
2023-02-17T22:35:20.987Z,66.44
2023-02-17T22:37:50.497Z,66.48
2023-02-17T22:40:20.445Z,65.91
2023-02-17T22:42:52.521Z,66.03
2023-02-17T22:45:22.015Z,66.39
2023-02-17T22:47:51.469Z,66.21
2023-02-17T22:50:20.969Z,66.13
2023-02-17T22:52:50.482Z,66.65
2023-02-17T22:55:20.085Z,66.50
2023-02-17T22:57:52.147Z,66.91
2023-02-17T23:00:22.013Z,67.24
2023-02-17T23:02:54.260Z,67.27
2023-02-17T23:05:23.703Z,67.84
2023-02-17T23:07:54.200Z,67.76
2023-02-17T23:10:23.669Z,67.83
2023-02-17T23:12:55.745Z,67.99
2023-02-17T23:15:39.294Z,67.80
2023-02-17T23:18:09.392Z,67.37
2023-02-17T23:20:40.236Z,67.45
2023-02-17T23:23:09.832Z,67.88
2023-02-17T23:25:41.199Z,67.82
2023-02-17T23:28:13.255Z,67.52
2023-02-17T23:30:43.509Z,67.34
2023-02-17T23:33:13.060Z,67.04
2023-02-17T23:35:44.845Z,66.97
2023-02-17T23:38:14.550Z,67.25
2023-02-17T23:40:44.024Z,67.42
2023-02-17T23:43:16.140Z,66.92
2023-02-17T23:45:45.572Z,67.22
2023-02-17T23:48:15.220Z,67.32
2023-02-17T23:50:44.706Z,66.62
2023-02-17T23:53:15.421Z,67.14
2023-02-17T23:55:44.895Z,67.40
2023-02-17T23:58:17.888Z,67.43
